createdAt,value
2019-03-31T00:00:37.745Z,0.69
2019-03-31T00:05:46.790Z,0.85
2019-03-31T00:10:55.869Z,0.63
2019-03-31T00:16:04.958Z,0.74
2019-03-31T00:21:14.106Z,0.78
2019-03-31T00:26:23.162Z,0.60
2019-03-31T00:31:32.299Z,0.68
2019-03-31T00:36:41.381Z,0.55
2019-03-31T00:41:50.535Z,0.53
2019-03-31T00:47:02.056Z,0.36
2019-03-31T00:52:08.324Z,0.45
2019-03-31T00:57:17.350Z,0.57
2019-03-31T01:02:26.538Z,0.49
2019-03-31T01:07:35.577Z,0.61
2019-03-31T01:12:44.717Z,0.73
2019-03-31T01:17:53.778Z,0.65
2019-03-31T01:23:02.950Z,0.60
2019-03-31T01:28:12.002Z,0.63
2019-03-31T01:33:21.201Z,0.63
2019-03-31T01:38:30.403Z,0.54
2019-03-31T01:43:39.545Z,0.35
2019-03-31T01:48:48.626Z,0.56
2019-03-31T01:53:57.878Z,0.58
2019-03-31T01:59:06.952Z,0.57
2019-03-31T02:04:16.086Z,0.61
2019-03-31T02:09:25.170Z,0.53
2019-03-31T02:14:34.259Z,0.63
2019-03-31T02:19:43.399Z,0.72
2019-03-31T02:24:52.497Z,0.58
2019-03-31T02:30:01.565Z,0.58
2019-03-31T02:35:09.201Z,0.58
2019-03-31T02:40:18.232Z,0.57
2019-03-31T02:45:27.362Z,0.52
2019-03-31T02:50:36.449Z,0.53
2019-03-31T02:55:45.667Z,0.64
2019-03-31T03:00:54.721Z,0.50
2019-03-31T03:06:04.424Z,0.44
2019-03-31T03:11:13.482Z,0.56
2019-03-31T03:16:22.563Z,0.69
2019-03-31T03:21:31.632Z,0.48
2019-03-31T03:26:40.761Z,0.78
2019-03-31T03:31:50.066Z,0.69
2019-03-31T03:36:58.446Z,0.69
2019-03-31T03:42:07.506Z,0.69
2019-03-31T03:47:16.628Z,0.60
2019-03-31T03:52:25.671Z,0.71
2019-03-31T03:57:34.818Z,0.69
2019-03-31T04:02:43.834Z,0.57
2019-03-31T04:07:52.998Z,0.85
2019-03-31T04:13:02.064Z,0.48
2019-03-31T04:18:11.213Z,0.84
2019-03-31T04:23:20.259Z,0.54
2019-03-31T04:28:29.461Z,0.59
2019-03-31T04:33:50.228Z,0.64
2019-03-31T04:38:47.342Z,0.71
2019-03-31T04:43:56.405Z,0.77
2019-03-31T04:49:06.006Z,0.59
2019-03-31T04:54:15.054Z,0.62
2019-03-31T04:59:24.165Z,0.63
2019-03-31T05:04:33.231Z,0.66
2019-03-31T05:09:42.358Z,0.59
2019-03-31T05:14:51.441Z,0.58
2019-03-31T05:20:00.608Z,0.65
2019-03-31T05:25:09.718Z,0.69
2019-03-31T05:30:18.962Z,0.76
2019-03-31T05:35:28.022Z,0.62
2019-03-31T05:40:37.259Z,0.75
2019-03-31T05:45:46.311Z,0.70
2019-03-31T05:50:55.460Z,0.71
2019-03-31T05:56:04.551Z,0.80
2019-03-31T06:01:13.682Z,0.66
2019-03-31T06:06:22.725Z,0.69
2019-03-31T06:11:31.953Z,0.78
2019-03-31T06:16:40.978Z,0.62
2019-03-31T06:21:50.105Z,0.65
2019-03-31T06:26:59.178Z,0.74
2019-03-31T06:32:08.301Z,0.65
2019-03-31T06:37:17.428Z,0.68
2019-03-31T06:42:26.593Z,0.68
2019-03-31T06:47:35.656Z,0.73
2019-03-31T06:52:44.787Z,0.69
2019-03-31T06:57:53.833Z,0.81
2019-03-31T07:03:03.105Z,0.71
2019-03-31T07:08:12.183Z,0.85
2019-03-31T07:13:21.245Z,0.66
2019-03-31T07:18:30.307Z,0.81
2019-03-31T07:23:40.437Z,0.85
2019-03-31T07:28:39.429Z,0.82
2019-03-31T07:33:48.556Z,0.75
2019-03-31T07:38:57.793Z,0.89
2019-03-31T07:44:06.790Z,0.71
2019-03-31T07:49:15.856Z,0.76
2019-03-31T07:54:25.039Z,0.96
2019-03-31T07:59:34.091Z,0.92
2019-03-31T08:04:43.201Z,0.87
2019-03-31T08:09:52.262Z,0.85
2019-03-31T08:15:01.436Z,0.79
2019-03-31T08:20:10.487Z,0.69
2019-03-31T08:25:19.587Z,0.72
2019-03-31T08:30:28.650Z,0.87
2019-03-31T08:35:47.292Z,0.96
2019-03-31T08:40:46.364Z,0.85
2019-03-31T08:45:55.583Z,0.91
2019-03-31T08:51:04.622Z,0.89
2019-03-31T08:56:13.798Z,1.18
2019-03-31T09:01:22.857Z,1.03
2019-03-31T09:06:32.013Z,0.96
2019-03-31T09:11:56.676Z,0.90
2019-03-31T09:16:45.761Z,0.75
2019-03-31T09:21:54.851Z,0.85
2019-03-31T09:27:03.950Z,1.00
2019-03-31T09:32:12.985Z,0.96
2019-03-31T09:37:22.250Z,0.88
2019-03-31T09:42:31.337Z,0.82
2019-03-31T09:47:40.449Z,0.99
2019-03-31T09:52:49.740Z,0.98
2019-03-31T09:57:58.870Z,0.67
2019-03-31T10:03:08.959Z,0.76
2019-03-31T10:08:08.020Z,1.23
2019-03-31T10:13:18.209Z,1.11
2019-03-31T10:18:18.385Z,0.96
2019-03-31T10:23:26.523Z,0.86
2019-03-31T10:28:35.677Z,0.88
2019-03-31T10:33:44.757Z,0.94
2019-03-31T10:38:53.889Z,1.01
2019-03-31T10:44:03.260Z,0.67
2019-03-31T10:49:12.349Z,1.00
2019-03-31T10:54:21.436Z,0.92
2019-03-31T10:59:30.579Z,0.99
2019-03-31T11:04:39.626Z,0.95
2019-03-31T11:09:48.707Z,1.13
2019-03-31T11:14:58.015Z,0.77
2019-03-31T11:20:07.918Z,1.02
2019-03-31T11:25:21.163Z,0.76
2019-03-31T11:30:25.673Z,0.82
2019-03-31T11:35:36.826Z,1.13
2019-03-31T11:40:35.958Z,0.98
2019-03-31T11:45:45.014Z,0.91
2019-03-31T11:50:54.132Z,0.58
2019-03-31T11:56:03.213Z,0.93
2019-03-31T12:01:12.374Z,0.77
2019-03-31T12:06:21.399Z,0.68
2019-03-31T12:11:30.590Z,0.91
2019-03-31T12:16:39.642Z,0.89
2019-03-31T12:21:50.937Z,0.87
2019-03-31T12:26:49.900Z,1.04
2019-03-31T12:32:00.086Z,0.88
2019-03-31T12:36:59.151Z,0.78
2019-03-31T12:42:08.283Z,0.62
2019-03-31T12:47:17.294Z,0.68
2019-03-31T12:52:26.423Z,0.72
2019-03-31T12:57:35.518Z,0.67
2019-03-31T13:02:44.707Z,0.68
2019-03-31T13:07:56.739Z,0.56
2019-03-31T13:13:02.397Z,0.58
2019-03-31T13:18:11.441Z,0.75
2019-03-31T13:23:20.554Z,0.48
2019-03-31T13:28:29.591Z,0.45
2019-03-31T13:33:38.749Z,0.52
2019-03-31T13:38:47.909Z,0.47
2019-03-31T13:43:57.002Z,0.48
2019-03-31T13:49:06.610Z,0.56
2019-03-31T13:54:15.726Z,0.47
2019-03-31T13:59:24.823Z,0.62
2019-03-31T14:04:35.502Z,0.51
2019-03-31T14:09:42.497Z,0.57
2019-03-31T14:14:51.834Z,0.58
2019-03-31T14:20:00.937Z,0.42
2019-03-31T14:25:10.090Z,0.62
2019-03-31T14:30:19.378Z,0.64
2019-03-31T14:35:28.637Z,0.63
2019-03-31T14:40:37.594Z,0.60
2019-03-31T14:45:46.766Z,0.69
2019-03-31T14:50:56.497Z,0.67
2019-03-31T14:56:05.511Z,1.17
2019-03-31T15:01:14.581Z,0.66
2019-03-31T15:06:23.853Z,0.65
2019-03-31T15:11:31.413Z,0.75
2019-03-31T15:16:40.622Z,0.59
2019-03-31T15:21:49.712Z,0.59
2019-03-31T15:26:58.843Z,0.84
2019-03-31T15:32:08.022Z,0.82
2019-03-31T15:37:17.161Z,0.81
2019-03-31T15:42:26.209Z,0.68
2019-03-31T15:47:35.401Z,0.53
2019-03-31T15:52:44.442Z,0.49
2019-03-31T15:57:53.621Z,0.59
2019-03-31T16:03:02.670Z,0.71
2019-03-31T16:08:11.787Z,0.69
2019-03-31T16:13:20.829Z,0.94
2019-03-31T16:18:29.981Z,0.75
2019-03-31T16:23:39.081Z,0.75
2019-03-31T16:28:48.142Z,0.92
2019-03-31T16:33:57.158Z,1.12
2019-03-31T16:39:06.326Z,0.76
2019-03-31T16:44:15.404Z,0.95
2019-03-31T16:49:24.586Z,0.67
2019-03-31T16:54:33.658Z,0.80
2019-03-31T16:59:42.794Z,0.95
2019-03-31T17:04:52.030Z,0.90
2019-03-31T17:10:01.635Z,0.70
2019-03-31T17:15:11.374Z,0.67
2019-03-31T17:20:20.586Z,1.02
2019-03-31T17:25:29.653Z,0.68
2019-03-31T17:30:38.853Z,0.82
2019-03-31T17:35:47.938Z,0.76
2019-03-31T17:40:57.062Z,0.65
2019-03-31T17:46:06.066Z,0.85
2019-03-31T17:51:15.351Z,0.87
2019-03-31T17:56:24.446Z,1.14
2019-03-31T18:01:33.565Z,0.92
2019-03-31T18:06:42.611Z,1.06
2019-03-31T18:11:51.728Z,0.93
2019-03-31T18:17:00.829Z,0.81
2019-03-31T18:22:16.294Z,0.81
2019-03-31T18:27:18.626Z,1.43
2019-03-31T18:32:27.612Z,0.81
2019-03-31T18:37:36.737Z,0.78
2019-03-31T18:42:46.078Z,0.73
2019-03-31T18:47:55.106Z,0.90
2019-03-31T18:53:04.218Z,0.74
2019-03-31T18:58:13.370Z,0.83
2019-03-31T19:03:22.437Z,0.98
2019-03-31T19:08:31.474Z,0.88
2019-03-31T19:13:54.526Z,0.93
2019-03-31T19:18:49.253Z,0.95
2019-03-31T19:23:58.539Z,0.91
2019-03-31T19:29:07.598Z,0.92
2019-03-31T19:34:16.682Z,1.05
2019-03-31T19:39:25.727Z,1.24
2019-03-31T19:44:35.061Z,2.43
2019-03-31T19:49:44.242Z,1.99
2019-03-31T19:54:53.434Z,1.99
2019-03-31T20:00:02.478Z,2.06
2019-03-31T20:05:12.602Z,1.30
2019-03-31T20:10:14.271Z,1.50
2019-03-31T20:15:20.273Z,1.00
2019-03-31T20:20:29.358Z,1.15
2019-03-31T20:25:38.549Z,1.26
2019-03-31T20:30:47.649Z,1.33
2019-03-31T20:35:56.813Z,0.73
2019-03-31T20:41:05.913Z,0.87
2019-03-31T20:46:15.767Z,0.83
2019-03-31T20:51:24.811Z,0.78
2019-03-31T20:56:34.006Z,0.87
2019-03-31T21:01:43.074Z,1.23
2019-03-31T21:06:52.218Z,1.43
2019-03-31T21:12:01.265Z,1.17
2019-03-31T21:17:10.389Z,1.32
2019-03-31T21:22:19.475Z,1.26
2019-03-31T21:27:28.633Z,1.24
2019-03-31T21:32:37.717Z,1.49
2019-03-31T21:37:46.861Z,1.23
2019-03-31T21:42:55.908Z,1.06
2019-03-31T21:48:05.048Z,1.34
2019-03-31T21:53:14.087Z,1.27
2019-03-31T21:58:23.214Z,1.11
2019-03-31T22:03:32.362Z,1.55
2019-03-31T22:08:41.541Z,1.66
2019-03-31T22:13:50.582Z,1.42
2019-03-31T22:18:59.762Z,1.24
2019-03-31T22:24:08.809Z,1.58
2019-03-31T22:29:17.878Z,1.59
2019-03-31T22:34:26.984Z,2.12
2019-03-31T22:39:36.021Z,1.98
2019-03-31T22:44:45.046Z,2.03
2019-03-31T22:49:54.225Z,2.02
2019-03-31T22:55:03.262Z,2.16
2019-03-31T23:00:12.391Z,1.92
2019-03-31T23:05:21.438Z,1.50
2019-03-31T23:10:30.581Z,1.65
2019-03-31T23:15:39.669Z,1.18
2019-03-31T23:20:48.933Z,1.20
2019-03-31T23:25:57.938Z,1.25
2019-03-31T23:31:07.077Z,1.27
2019-03-31T23:36:16.795Z,1.07
2019-03-31T23:41:25.975Z,1.02
2019-03-31T23:46:35.053Z,0.92
2019-03-31T23:51:44.317Z,1.13
2019-03-31T23:56:53.398Z,1.02
